Millville, Minnesota
Current Conditions -  °F | °C
As of 6:13 AM on Sunday 21 Dec 2014 (Local Time) from K9MN Reporting Station
Overcast Overcast  
Wind Chill: -5°   Ceiling: 200
Heat Index:   Visibility: 2.5mi
Dew Point:   Wind: 12mph
Humidity: 99%   Direction: 130°SE
Pressure: 29.96"   Gusts: 18mph
Location:  44.24°N, 92.3°W
Report Text: K9MN 211213Z AUTO 13010G16KT 2 1/2SM OVC002 00/00 A2996 RMK AO1 T00010000
Loading
Personal Weather Stations






























Interactive Weather Map New forecast layout! Learn more

10-Day Weather Forecast

Advertisements
Track Severe Weather on mobile